Time;durP1;ratioP1;P1;durP2;ratioP2;P2;SDS_P1;SDS_P2;PMS_P1;PMS_P2;Temp;Humidity;BMP_temperature;BMP_pressure;BME280_temperature;BME280_humidity;BME280_pressure;Samples;Min_cycle;Max_cycle;Signal;HPM_P1;HPM_P2
2023/07/21 00:01:02;;;;;;;0.47;0.30;;;;;;;19.07;76.98;100532.75;4955234;28;20031;-65
2023/07/21 00:03:27;;;;;;;5.45;0.40;;;;;;;19.05;76.56;100524.19;4944848;28;20066;-66
2023/07/21 00:05:53;;;;;;;1.05;0.43;;;;;;;19.01;77.01;100528.19;4969648;28;20059;-67
2023/07/21 00:08:19;;;;;;;0.52;0.40;;;;;;;19.12;76.60;100529.56;4944678;29;20051;-65
2023/07/21 00:10:44;;;;;;;0.10;0.10;;;;;;;19.03;77.28;100528.56;4940696;28;20046;-66
2023/07/21 00:13:10;;;;;;;0.38;0.20;;;;;;;19.03;77.64;100512.16;4955745;28;20051;-66
2023/07/21 00:15:35;;;;;;;0.20;0.10;;;;;;;19.12;77.42;100526.06;4959025;28;20042;-67
2023/07/21 00:18:01;;;;;;;0.60;0.30;;;;;;;19.13;77.48;100525.63;4943109;28;20027;-67
2023/07/21 00:20:29;;;;;;;0.10;0.10;;;;;;;19.10;77.62;100529.19;4954732;28;20035;-67
2023/07/21 00:22:54;;;;;;;0.55;0.20;;;;;;;19.12;78.01;100524.09;4957315;28;20090;-66
2023/07/21 00:25:20;;;;;;;0.38;0.30;;;;;;;19.10;77.79;100523.75;4950296;28;20042;-68
2023/07/21 00:27:45;;;;;;;0.30;0.10;;;;;;;19.15;77.01;100519.75;4951656;29;20029;-66
2023/07/21 00:30:12;;;;;;;0.80;0.38;;;;;;;19.16;77.61;100518.56;4957934;28;20031;-66
2023/07/21 00:32:38;;;;;;;0.55;0.55;;;;;;;19.20;77.70;100519.28;4953626;28;20070;-66
2023/07/21 00:35:08;;;;;;;0.95;0.20;;;;;;;19.13;77.38;100525.63;4966014;28;20131;-69
2023/07/21 00:37:34;;;;;;;0.30;0.30;;;;;;;19.12;77.41;100521.38;4962574;28;20039;-66
2023/07/21 00:39:59;;;;;;;0.45;0.30;;;;;;;19.12;77.47;100523.31;4950120;28;20122;-67
2023/07/21 00:42:26;;;;;;;0.65;0.30;;;;;;;18.93;78.15;100516.59;4971086;28;20134;-66
2023/07/21 00:44:52;;;;;;;0.20;0.20;;;;;;;18.98;78.07;100512.63;4936992;29;20050;-66
2023/07/21 00:47:17;;;;;;;0.60;0.30;;;;;;;18.92;78.27;100515.06;4954272;28;20039;-66
2023/07/21 00:49:43;;;;;;;0.90;0.40;;;;;;;18.98;77.92;100507.16;4940115;28;20038;-67
2023/07/21 00:52:12;;;;;;;0.30;0.20;;;;;;;18.88;77.87;100506.16;4952670;28;20023;-67
2023/07/21 00:54:38;;;;;;;0.28;0.17;;;;;;;18.81;78.02;100514.47;4922885;29;20508;-66
2023/07/21 00:57:04;;;;;;;0.50;0.40;;;;;;;18.66;78.38;100515.88;4952903;29;20126;-66
2023/07/21 00:59:29;;;;;;;0.32;0.32;;;;;;;18.54;78.96;100508.25;4937281;29;20102;-66
2023/07/21 01:02:16;;;;;;;0.25;0.25;;;;;;;18.44;79.34;100512.69;4963325;28;20036;-67
2023/07/21 01:04:44;;;;;;;0.22;0.20;;;;;;;18.46;78.50;100507.59;4882962;29;20135;-67
2023/07/21 01:07:10;;;;;;;0.95;0.47;;;;;;;18.31;78.74;100499.97;4891722;29;20055;-68
2023/07/21 01:09:38;;;;;;;0.22;0.17;;;;;;;18.23;79.88;100509.44;4888320;29;20893;-66
2023/07/21 01:12:06;;;;;;;0.60;0.30;;;;;;;18.26;79.65;100503.16;4886972;29;20057;-66
2023/07/21 01:14:32;;;;;;;0.20;0.20;;;;;;;18.27;79.65;100496.53;4878587;29;20028;-70
2023/07/21 01:17:00;;;;;;;0.30;0.20;;;;;;;18.25;79.63;100496.16;4889053;29;20165;-66
2023/07/21 01:19:29;;;;;;;0.63;0.35;;;;;;;18.13;79.71;100494.75;4888595;29;20060;-67
2023/07/21 01:22:02;;;;;;;0.65;0.25;;;;;;;18.02;80.47;100497.59;4871246;29;20067;-69
2023/07/21 01:24:50;;;;;;;0.25;0.22;;;;;;;18.20;79.43;100489.19;4892749;29;20047;-66
2023/07/21 01:27:21;;;;;;;0.30;0.30;;;;;;;17.98;80.62;100488.69;4861825;29;20059;-67
2023/07/21 01:29:48;;;;;;;0.20;0.20;;;;;;;17.93;80.67;100491.88;4892835;29;20101;-68
2023/07/21 01:32:17;;;;;;;0.70;0.43;;;;;;;17.96;80.77;100488.34;4878067;29;20049;-66
2023/07/21 01:34:43;;;;;;;0.82;0.50;;;;;;;17.99;80.09;100484.03;4890958;29;20068;-66
2023/07/21 01:37:11;;;;;;;4.55;0.32;;;;;;;18.00;79.97;100480.88;4873553;29;20078;-68
2023/07/21 01:39:38;;;;;;;2.15;0.30;;;;;;;17.85;80.06;100484.19;4888404;29;20430;-67
2023/07/21 01:42:05;;;;;;;0.52;0.52;;;;;;;17.82;80.63;100488.53;4936280;28;20078;-68
2023/07/21 01:44:31;;;;;;;0.65;0.28;;;;;;;18.03;79.91;100480.09;4932540;29;20027;-66
2023/07/21 01:46:57;;;;;;;0.22;0.22;;;;;;;17.95;80.64;100473.19;4947097;28;20035;-66
2023/07/21 01:49:22;;;;;;;0.50;0.50;;;;;;;17.95;80.44;100477.84;4968343;28;20038;-68
2023/07/21 01:51:52;;;;;;;0.47;0.30;;;;;;;17.82;81.38;100466.72;4953719;28;20046;-67
2023/07/21 01:54:26;;;;;;;0.45;0.22;;;;;;;17.84;81.12;100461.66;4948884;29;20038;-66
2023/07/21 01:56:57;;;;;;;0.50;0.25;;;;;;;17.91;81.06;100468.94;4936368;29;20406;-66
2023/07/21 01:59:24;;;;;;;1.00;0.60;;;;;;;17.83;81.12;100468.25;4954829;28;20042;-68
2023/07/21 02:01:54;;;;;;;0.22;0.20;;;;;;;17.73;81.91;100468.41;4943688;29;20024;-67
2023/07/21 02:04:20;;;;;;;0.60;0.40;;;;;;;17.87;81.26;100471.72;4944859;29;20045;-67
2023/07/21 02:06:47;;;;;;;0.22;0.20;;;;;;;17.85;81.28;100465.91;4953640;28;20118;-67
2023/07/21 02:09:13;;;;;;;0.30;0.20;;;;;;;17.59;81.60;100469.34;4940871;28;20035;-68
2023/07/21 02:11:40;;;;;;;2.63;0.40;;;;;;;17.73;81.64;100466.44;4915817;29;20447;-73
2023/07/21 02:14:45;;;;;;;0.17;0.17;;;;;;;17.59;81.88;100476.72;4929716;28;20507;-67
2023/07/21 02:17:11;;;;;;;0.35;0.35;;;;;;;17.06;84.31;100466.34;4942716;28;20678;-67
2023/07/21 02:19:37;;;;;;;0.98;0.38;;;;;;;17.09;84.86;100455.41;4954718;28;20062;-68
2023/07/21 02:22:05;;;;;;;0.30;0.30;;;;;;;17.02;85.40;100455.50;4954221;28;20467;-68
2023/07/21 02:24:30;;;;;;;0.57;0.20;;;;;;;17.28;84.41;100456.03;4958790;28;20063;-68
2023/07/21 02:26:55;;;;;;;2.13;0.25;;;;;;;17.11;84.20;100455.03;4937517;29;20057;-69
2023/07/21 02:29:21;;;;;;;0.30;0.20;;;;;;;17.14;84.68;100448.78;4952633;28;20055;-67
2023/07/21 02:31:49;;;;;;;0.47;0.45;;;;;;;17.17;84.27;100444.47;4936539;29;20380;-66
2023/07/21 02:34:14;;;;;;;0.30;0.30;;;;;;;17.12;84.42;100442.97;4932318;29;20031;-67
2023/07/21 02:36:40;;;;;;;0.20;0.20;;;;;;;17.21;84.53;100443.25;4939037;28;20624;-69
2023/07/21 02:39:05;;;;;;;0.60;0.40;;;;;;;17.35;83.94;100445.84;4932312;29;20156;-67
2023/07/21 02:41:51;;;;;;;0.28;0.28;;;;;;;17.30;84.42;100450.97;4956984;28;20377;-66
2023/07/21 02:44:16;;;;;;;0.25;0.25;;;;;;;17.33;84.13;100455.56;4882019;29;20452;-71
2023/07/21 02:46:42;;;;;;;0.32;0.30;;;;;;;17.28;83.61;100443.19;4864372;29;20028;-69
2023/07/21 02:49:07;;;;;;;0.50;0.30;;;;;;;17.26;84.27;100458.38;4868444;29;20052;-67
2023/07/21 02:51:33;;;;;;;1.80;0.55;;;;;;;17.30;83.72;100449.00;4853555;29;20063;-67
2023/07/21 02:53:58;;;;;;;0.45;0.45;;;;;;;17.26;84.28;100453.72;4863234;29;20041;-69
2023/07/21 02:56:24;;;;;;;0.40;0.40;;;;;;;17.18;84.33;100446.81;4854780;29;20045;-66
2023/07/21 02:59:07;;;;;;;0.65;0.38;;;;;;;17.17;84.30;100434.34;4871074;29;20040;-67
2023/07/21 03:01:33;;;;;;;0.63;0.40;;;;;;;17.06;85.00;100433.69;4855996;29;20045;-69
2023/07/21 03:03:59;;;;;;;0.82;0.38;;;;;;;17.00;85.31;100436.09;4898885;29;20548;-67
2023/07/21 03:06:30;;;;;;;0.40;0.20;;;;;;;17.01;85.51;100426.72;4859301;29;20036;-71
2023/07/21 03:08:56;;;;;;;0.43;0.40;;;;;;;17.01;85.50;100428.69;4853780;29;20044;-68
2023/07/21 03:11:26;;;;;;;4.88;0.50;;;;;;;16.99;85.94;100426.34;4862350;29;20030;-67
2023/07/21 03:14:10;;;;;;;0.25;0.25;;;;;;;17.03;86.16;100418.19;4856946;29;20065;-67
2023/07/21 03:16:36;;;;;;;0.85;0.45;;;;;;;17.02;86.04;100424.78;4883017;29;20210;-67
2023/07/21 03:19:02;;;;;;;1.35;0.43;;;;;;;17.02;85.77;100428.28;4861138;29;20467;-66
2023/07/21 03:21:29;;;;;;;0.50;0.43;;;;;;;16.94;85.69;100428.75;4908550;29;20040;-66
2023/07/21 03:23:55;;;;;;;0.65;0.40;;;;;;;16.84;86.17;100424.19;4937504;28;20041;-66
2023/07/21 03:26:26;;;;;;;1.25;0.20;;;;;;;16.84;86.93;100416.78;4936309;29;20047;-67
2023/07/21 03:28:53;;;;;;;0.88;0.32;;;;;;;16.86;87.07;100411.72;4934436;29;20027;-67
2023/07/21 03:31:20;;;;;;;0.93;0.45;;;;;;;16.90;87.02;100422.56;4970805;28;20068;-67
2023/07/21 03:33:59;;;;;;;0.57;0.20;;;;;;;17.00;86.85;100418.97;4932378;29;20035;-67
2023/07/21 03:36:27;;;;;;;0.25;0.25;;;;;;;17.01;86.30;100420.53;4937304;29;20431;-67
2023/07/21 03:38:52;;;;;;;0.63;0.40;;;;;;;17.02;87.08;100411.19;4939611;28;20023;-67
2023/07/21 03:41:18;;;;;;;0.90;0.50;;;;;;;17.01;87.07;100409.66;4947367;28;20031;-69
2023/07/21 03:43:44;;;;;;;0.30;0.30;;;;;;;17.09;87.18;100419.28;4955691;28;20034;-68
2023/07/21 03:46:11;;;;;;;0.80;0.30;;;;;;;17.16;87.32;100421.94;4954906;28;20051;-67
2023/07/21 03:49:32;;;;;;;0.50;0.37;;;;;;;17.10;87.38;100423.53;4932094;29;20057;-66
2023/07/21 03:52:24;;;;;;;0.93;0.40;;;;;;;17.24;86.97;100417.19;4842369;29;20077;-68
2023/07/21 03:54:50;;;;;;;0.50;0.40;;;;;;;17.12;87.61;100423.91;4803707;29;20511;-67
2023/07/21 03:57:16;;;;;;;0.40;0.20;;;;;;;17.14;87.62;100418.84;4789178;29;20065;-67
2023/07/21 03:59:42;;;;;;;3.70;0.63;;;;;;;17.12;88.08;100426.63;4799268;29;20088;-66
2023/07/21 04:02:08;;;;;;;0.25;0.25;;;;;;;17.22;87.72;100424.97;4784920;29;20035;-66
2023/07/21 04:04:34;;;;;;;0.40;0.35;;;;;;;17.20;88.03;100430.06;4803373;29;20404;-66
2023/07/21 04:07:01;;;;;;;0.40;0.35;;;;;;;17.32;87.42;100414.00;4801441;29;20058;-68
2023/07/21 04:09:28;;;;;;;0.40;0.40;;;;;;;17.23;88.17;100413.69;4803017;29;20506;-69
2023/07/21 04:11:53;;;;;;;0.45;0.35;;;;;;;17.27;87.73;100406.25;4802438;29;20034;-71
2023/07/21 04:14:19;;;;;;;0.40;0.32;;;;;;;17.18;88.65;100408.69;4803317;29;20114;-66
2023/07/21 04:16:44;;;;;;;0.32;0.32;;;;;;;17.17;89.36;100407.13;4801447;29;20035;-66
2023/07/21 04:19:09;;;;;;;0.25;0.25;;;;;;;17.10;89.81;100413.44;4802070;29;20047;-70
2023/07/21 04:21:36;;;;;;;0.45;0.40;;;;;;;17.21;89.32;100415.28;4803668;29;20035;-69
2023/07/21 04:24:03;;;;;;;0.40;0.40;;;;;;;17.39;88.19;100405.72;4802307;29;20070;-66
2023/07/21 04:26:28;;;;;;;0.90;0.68;;;;;;;17.18;88.50;100411.41;4801892;29;20090;-67
2023/07/21 04:28:54;;;;;;;2.58;0.68;;;;;;;17.28;88.98;100407.81;4836303;29;20082;-68
2023/07/21 04:31:21;;;;;;;1.08;0.77;;;;;;;17.42;88.47;100407.63;4902208;29;20058;-67
2023/07/21 04:34:07;;;;;;;1.75;0.50;;;;;;;17.53;87.19;100400.16;4951147;28;20109;-67
2023/07/21 04:36:35;;;;;;;1.15;0.77;;;;;;;17.57;86.94;100397.38;4949507;28;20487;-67
2023/07/21 04:39:05;;;;;;;2.38;0.50;;;;;;;17.55;87.19;100397.81;4937244;29;20054;-67
2023/07/21 04:41:31;;;;;;;2.17;1.02;;;;;;;17.59;86.46;100401.25;4967084;28;20070;-67
2023/07/21 04:43:56;;;;;;;0.77;0.60;;;;;;;17.43;87.25;100406.47;4958737;28;20059;-67
2023/07/21 04:46:22;;;;;;;0.47;0.47;;;;;;;17.44;87.41;100405.28;4929505;29;20039;-67
2023/07/21 04:48:49;;;;;;;1.20;0.90;;;;;;;17.50;87.95;100408.38;4952953;28;20114;-68
2023/07/21 04:51:24;;;;;;;1.13;0.68;;;;;;;17.64;87.87;100419.06;4957596;28;20049;-70
2023/07/21 04:53:49;;;;;;;0.35;0.35;;;;;;;17.74;87.26;100405.34;4964682;28;20455;-66
2023/07/21 04:56:15;;;;;;;0.77;0.65;;;;;;;17.70;86.81;100409.28;4959646;28;20053;-69
2023/07/21 04:58:46;;;;;;;3.78;0.40;;;;;;;17.71;87.60;100417.03;4947982;28;20022;-68
2023/07/21 05:01:11;;;;;;;1.50;0.90;;;;;;;17.84;86.99;100412.59;4933891;29;20082;-67
2023/07/21 05:03:36;;;;;;;2.58;0.80;;;;;;;17.84;86.39;100418.06;4951430;28;20043;-66
2023/07/21 05:06:02;;;;;;;0.82;0.77;;;;;;;17.96;85.75;100414.00;4958360;28;20066;-67
2023/07/21 05:08:28;;;;;;;0.57;0.50;;;;;;;17.85;86.28;100408.69;4938721;28;20057;-68
2023/07/21 05:10:56;;;;;;;0.88;0.70;;;;;;;17.85;86.26;100416.84;4937437;29;20085;-67
2023/07/21 05:13:21;;;;;;;0.38;0.38;;;;;;;17.90;86.72;100408.22;4940341;28;20114;-69
2023/07/21 05:16:08;;;;;;;3.05;0.70;;;;;;;17.97;85.87;100416.31;4957586;28;20035;-67
2023/07/21 05:18:43;;;;;;;0.98;0.32;;;;;;;17.99;86.12;100413.94;4935465;29;20078;-69
2023/07/21 05:21:27;;;;;;;2.63;0.57;;;;;;;18.09;87.01;100412.25;4946836;29;20350;-67
2023/07/21 05:23:57;;;;;;;2.15;0.68;;;;;;;18.17;86.85;100404.75;4924423;29;20098;-71
2023/07/21 05:26:24;;;;;;;0.20;0.20;;;;;;;18.10;85.21;100413.78;4944771;29;20031;-68
2023/07/21 05:28:50;;;;;;;0.52;0.50;;;;;;;18.02;85.07;100410.38;4945536;28;20039;-66
2023/07/21 05:31:17;;;;;;;0.73;0.45;;;;;;;17.96;84.46;100409.31;4933494;29;20023;-66
2023/07/21 05:34:01;;;;;;;0.40;0.30;;;;;;;17.84;84.37;100407.16;4965339;28;20035;-66
2023/07/21 05:36:28;;;;;;;1.60;0.77;;;;;;;17.92;84.51;100402.38;4966045;28;20031;-65
2023/07/21 05:38:53;;;;;;;1.45;0.73;;;;;;;18.49;84.39;100407.78;4977839;28;20031;-66
2023/07/21 05:41:19;;;;;;;1.08;0.30;;;;;;;18.90;82.24;100398.13;4935156;28;20487;-66
2023/07/21 05:43:45;;;;;;;0.30;0.30;;;;;;;19.35;78.92;100401.19;4937793;29;20037;-68
2023/07/21 05:46:12;;;;;;;1.02;0.43;;;;;;;19.74;78.87;100390.22;4959216;28;20038;-67
2023/07/21 05:48:47;;;;;;;0.63;0.30;;;;;;;19.68;76.01;100397.41;4935727;29;20030;-67
2023/07/21 05:51:13;;;;;;;0.38;0.30;;;;;;;19.94;75.69;100397.63;4958681;28;20023;-66
2023/07/21 05:53:39;;;;;;;0.90;0.40;;;;;;;19.74;75.19;100395.69;4957013;28;20028;-68
2023/07/21 05:56:07;;;;;;;3.03;0.30;;;;;;;19.81;74.95;100400.25;4959228;28;20387;-67
2023/07/21 05:58:52;;;;;;;1.33;0.43;;;;;;;20.14;74.50;100399.13;4956110;28;20038;-67
2023/07/21 06:01:18;;;;;;;1.77;0.50;;;;;;;20.45;73.86;100402.31;4956873;28;20118;-68
2023/07/21 06:03:43;;;;;;;0.20;0.15;;;;;;;20.50;72.67;100407.28;4964011;28;20049;-67
2023/07/21 06:06:09;;;;;;;1.30;0.63;;;;;;;20.34;72.86;100408.03;4939704;29;20722;-68
2023/07/21 06:09:06;;;;;;;1.38;0.40;;;;;;;20.24;72.19;100400.09;4930555;29;20531;-68
2023/07/21 06:11:35;;;;;;;0.47;0.30;;;;;;;20.44;73.59;100395.31;4956601;28;20042;-68
2023/07/21 06:14:19;;;;;;;0.40;0.20;;;;;;;20.62;72.52;100403.84;4930248;29;20520;-67
2023/07/21 06:17:19;;;;;;;0.93;0.70;;;;;;;21.08;70.15;100397.97;4936428;29;20043;-68
2023/07/21 06:19:48;;;;;;;0.30;0.30;;;;;;;21.11;67.75;100397.13;4953852;28;20041;-68
2023/07/21 06:22:16;;;;;;;1.65;0.25;;;;;;;20.99;66.71;100397.81;4931860;28;20098;-69
2023/07/21 06:24:43;;;;;;;0.38;0.30;;;;;;;20.53;68.17;100399.00;4959914;28;20023;-68
2023/07/21 06:27:10;;;;;;;0.22;0.22;;;;;;;20.63;69.08;100397.19;4976578;28;20055;-68
2023/07/21 06:29:35;;;;;;;0.63;0.40;;;;;;;20.83;69.19;100402.56;4955453;28;20474;-68
2023/07/21 06:32:01;;;;;;;0.40;0.40;;;;;;;20.94;66.83;100400.31;4939364;28;20023;-68
2023/07/21 06:34:56;;;;;;;0.20;0.20;;;;;;;20.88;69.40;100402.81;4928829;28;20039;-68
2023/07/21 06:37:33;;;;;;;1.10;0.40;;;;;;;21.19;68.06;100401.22;4945989;28;20086;-68
2023/07/21 06:40:21;;;;;;;0.28;0.20;;;;;;;21.17;68.47;100398.16;4958830;28;20027;-68
2023/07/21 06:43:09;;;;;;;1.00;0.40;;;;;;;21.03;69.49;100398.53;4943164;29;20125;-68
2023/07/21 06:45:51;;;;;;;1.95;0.45;;;;;;;21.25;69.43;100399.47;4958075;28;20030;-68
2023/07/21 06:48:23;;;;;;;0.55;0.38;;;;;;;21.26;68.80;100397.50;4980994;28;20055;-68
2023/07/21 06:51:04;;;;;;;0.80;0.22;;;;;;;21.50;67.10;100405.03;4938751;28;20444;-69
2023/07/21 06:53:29;;;;;;;0.20;0.20;;;;;;;21.67;67.39;100405.72;4953623;28;20066;-68
2023/07/21 06:55:55;;;;;;;0.20;0.10;;;;;;;21.86;67.59;100399.31;4939230;29;20151;-67
2023/07/21 06:58:20;;;;;;;0.75;0.40;;;;;;;21.82;65.28;100400.63;4939204;28;20034;-67
2023/07/21 07:00:46;;;;;;;0.52;0.30;;;;;;;21.57;66.66;100393.09;4948010;28;20542;-67
2023/07/21 07:03:12;;;;;;;0.30;0.30;;;;;;;21.60;67.64;100402.44;4953824;28;20068;-67
2023/07/21 07:05:41;;;;;;;0.38;0.28;;;;;;;21.61;69.01;100399.25;4957890;28;20508;-67
2023/07/21 07:08:06;;;;;;;0.68;0.20;;;;;;;21.69;69.17;100397.84;4939318;28;20486;-67
2023/07/21 07:10:34;;;;;;;1.65;0.38;;;;;;;22.10;65.25;100392.31;4951991;28;20038;-67
2023/07/21 07:13:00;;;;;;;0.52;0.30;;;;;;;22.31;64.50;100390.88;4952413;28;20046;-67
2023/07/21 07:15:25;;;;;;;0.40;0.32;;;;;;;22.30;65.46;100384.59;4946763;28;20052;-67
2023/07/21 07:17:51;;;;;;;1.73;0.20;;;;;;;22.41;64.85;100389.75;4958798;28;20113;-67
2023/07/21 07:20:16;;;;;;;0.20;0.20;;;;;;;22.00;63.64;100400.84;4966326;28;20058;-67
2023/07/21 07:22:42;;;;;;;1.20;0.28;;;;;;;22.04;63.37;100390.56;4961979;28;20047;-66
2023/07/21 07:25:08;;;;;;;0.43;0.40;;;;;;;22.03;64.34;100391.75;4953784;28;20039;-67
2023/07/21 07:27:34;;;;;;;0.38;0.30;;;;;;;22.18;63.87;100390.88;4947879;29;20031;-66
2023/07/21 07:29:59;;;;;;;1.20;0.20;;;;;;;22.41;63.56;100389.75;4959728;28;20117;-67
2023/07/21 07:32:25;;;;;;;0.22;0.22;;;;;;;22.59;64.21;100400.94;4943410;28;20542;-66
2023/07/21 07:34:55;;;;;;;0.50;0.38;;;;;;;22.87;62.56;100397.25;4942653;28;20035;-67
2023/07/21 07:37:20;;;;;;;0.50;0.40;;;;;;;23.02;60.83;100392.81;4952003;28;20057;-67
2023/07/21 07:39:46;;;;;;;0.55;0.30;;;;;;;22.60;61.07;100391.50;4949783;28;20558;-66
2023/07/21 07:42:11;;;;;;;0.13;0.13;;;;;;;22.67;62.16;100396.75;4952823;28;20035;-66
2023/07/21 07:44:37;;;;;;;0.52;0.40;;;;;;;22.39;62.29;100395.69;4953437;28;20050;-67
2023/07/21 07:47:03;;;;;;;0.52;0.40;;;;;;;22.62;63.06;100389.09;4946036;29;20113;-67
2023/07/21 07:49:29;;;;;;;0.57;0.43;;;;;;;22.74;62.96;100402.03;4953035;28;20106;-67
2023/07/21 07:51:54;;;;;;;0.40;0.35;;;;;;;22.74;62.26;100398.50;4952786;29;20483;-66
2023/07/21 07:54:20;;;;;;;0.68;0.30;;;;;;;22.78;63.32;100391.69;4935694;29;20035;-66
2023/07/21 07:56:47;;;;;;;0.82;0.47;;;;;;;22.72;63.56;100396.22;4945771;28;20126;-67
2023/07/21 07:59:13;;;;;;;0.47;0.30;;;;;;;22.28;64.18;100386.25;4950477;28;20035;-67
2023/07/21 08:01:38;;;;;;;0.25;0.25;;;;;;;22.50;65.61;100387.09;4932302;28;20688;-67
2023/07/21 08:04:04;;;;;;;0.47;0.40;;;;;;;22.70;63.78;100387.66;4946517;28;20090;-67
2023/07/21 08:06:29;;;;;;;0.75;0.38;;;;;;;22.20;63.28;100387.69;4928977;28;20134;-68
2023/07/21 08:08:55;;;;;;;0.75;0.70;;;;;;;22.21;63.93;100381.75;4949383;28;20134;-66
2023/07/21 08:11:20;;;;;;;0.45;0.30;;;;;;;22.47;63.69;100379.75;4939808;28;20027;-69
2023/07/21 08:13:46;;;;;;;1.10;0.52;;;;;;;22.73;61.67;100383.22;4946666;28;20048;-69
2023/07/21 08:16:13;;;;;;;0.45;0.38;;;;;;;22.79;60.73;100387.72;4942189;28;20039;-66
2023/07/21 08:18:39;;;;;;;0.30;0.30;;;;;;;22.93;59.96;100370.75;4948678;28;20035;-66
2023/07/21 08:21:19;;;;;;;1.55;0.63;;;;;;;22.74;60.06;100376.53;4933625;29;20038;-66
2023/07/21 08:23:45;;;;;;;0.63;0.52;;;;;;;22.36;61.64;100369.13;4955988;28;20122;-66
2023/07/21 08:26:10;;;;;;;0.55;0.30;;;;;;;22.58;63.24;100363.72;4950235;28;20118;-66
2023/07/21 08:28:36;;;;;;;1.55;0.80;;;;;;;22.72;61.22;100367.97;4971387;28;20082;-68
2023/07/21 08:31:01;;;;;;;1.42;0.32;;;;;;;23.30;61.08;100367.06;4971369;28;20031;-67
2023/07/21 08:33:27;;;;;;;0.30;0.25;;;;;;;23.38;60.66;100361.31;4962387;28;20034;-66
2023/07/21 08:35:52;;;;;;;0.30;0.25;;;;;;;23.32;58.90;100368.63;4972317;28;20034;-65
2023/07/21 08:38:18;;;;;;;1.35;0.50;;;;;;;23.55;58.33;100362.66;4953534;28;20093;-65
2023/07/21 08:40:49;;;;;;;0.73;0.60;;;;;;;23.62;58.80;100373.38;4971528;28;20039;-66
2023/07/21 08:43:15;;;;;;;0.40;0.40;;;;;;;23.68;57.97;100368.81;4940531;28;20049;-66
2023/07/21 08:45:43;;;;;;;0.65;0.65;;;;;;;23.79;59.27;100374.69;4960002;28;20046;-69
2023/07/21 08:48:09;;;;;;;0.65;0.38;;;;;;;23.69;58.00;100362.88;4938889;28;20073;-66
2023/07/21 08:50:38;;;;;;;0.40;0.40;;;;;;;23.68;57.07;100353.09;4956338;28;20024;-71
2023/07/21 08:53:04;;;;;;;0.63;0.60;;;;;;;23.51;58.63;100364.75;4944878;28;20039;-66
2023/07/21 08:55:29;;;;;;;0.47;0.30;;;;;;;23.85;58.53;100361.88;4958053;28;20035;-67
2023/07/21 08:57:59;;;;;;;0.63;0.60;;;;;;;23.48;57.73;100360.91;4941869;29;20408;-69
2023/07/21 09:00:25;;;;;;;1.30;0.57;;;;;;;23.25;59.31;100347.63;4916962;29;20051;-66
2023/07/21 09:02:58;;;;;;;0.45;0.35;;;;;;;23.61;58.60;100352.59;4943069;28;20031;-67
2023/07/21 09:05:24;;;;;;;0.70;0.47;;;;;;;23.69;59.07;100349.09;4954737;28;20122;-68
2023/07/21 09:07:49;;;;;;;2.22;0.60;;;;;;;23.96;57.76;100342.97;4946861;28;20603;-69
2023/07/21 09:10:30;;;;;;;0.98;0.32;;;;;;;24.07;57.60;100348.84;4947226;28;20031;-67
2023/07/21 09:12:55;;;;;;;0.63;0.50;;;;;;;23.40;57.51;100348.69;4957257;28;20157;-68
2023/07/21 09:15:21;;;;;;;0.85;0.50;;;;;;;23.91;56.75;100347.06;4954970;28;20151;-68
2023/07/21 09:17:46;;;;;;;1.95;0.82;;;;;;;23.62;58.86;100343.13;4944001;29;20070;-67
2023/07/21 09:20:12;;;;;;;1.85;0.38;;;;;;;24.16;58.59;100333.13;4956645;28;20116;-68
2023/07/21 09:22:41;;;;;;;1.17;0.50;;;;;;;24.56;58.62;100340.53;4963837;28;20019;-68
2023/07/21 09:25:08;;;;;;;1.25;0.40;;;;;;;24.81;57.18;100341.03;4915821;29;20130;-68
2023/07/21 09:27:38;;;;;;;1.13;0.40;;;;;;;24.76;55.25;100333.38;4944994;29;20046;-67
2023/07/21 09:30:04;;;;;;;0.40;0.40;;;;;;;25.04;54.38;100334.13;4969659;28;20492;-67
2023/07/21 09:32:38;;;;;;;1.40;0.60;;;;;;;25.02;51.93;100333.81;4936182;29;20117;-67
2023/07/21 09:35:05;;;;;;;2.63;0.47;;;;;;;25.18;54.15;100327.22;4947510;29;20066;-67
2023/07/21 09:37:33;;;;;;;0.43;0.30;;;;;;;25.43;55.36;100330.41;4955242;28;20045;-68
2023/07/21 09:40:01;;;;;;;0.40;0.40;;;;;;;25.54;53.94;100327.16;4947868;28;20031;-68
2023/07/21 09:42:28;;;;;;;1.25;0.50;;;;;;;25.47;51.43;100338.53;4945890;29;20031;-68
2023/07/21 09:44:55;;;;;;;0.57;0.52;;;;;;;25.18;51.71;100322.47;4936230;29;20447;-68
2023/07/21 09:47:21;;;;;;;0.32;0.32;;;;;;;25.39;52.76;100326.25;4953197;29;20110;-68
2023/07/21 09:49:48;;;;;;;0.60;0.30;;;;;;;25.74;52.22;100325.41;4936154;29;20688;-68
2023/07/21 09:52:17;;;;;;;0.75;0.20;;;;;;;25.64;52.32;100328.66;4940543;29;20019;-68
2023/07/21 09:55:03;;;;;;;0.88;0.60;;;;;;;25.84;52.12;100326.13;4962059;28;20058;-68
2023/07/21 09:57:32;;;;;;;0.47;0.40;;;;;;;26.13;50.56;100331.81;4892490;29;20792;-68
2023/07/21 10:00:02;;;;;;;0.50;0.40;;;;;;;26.19;50.16;100329.19;4866524;29;20541;-68
2023/07/21 10:02:37;;;;;;;0.32;0.30;;;;;;;26.28;49.47;100324.38;4891160;29;20509;-68
2023/07/21 10:05:04;;;;;;;0.30;0.30;;;;;;;26.10;49.97;100318.19;4893080;29;20127;-68
2023/07/21 10:07:32;;;;;;;1.80;0.25;;;;;;;25.87;49.04;100314.13;4887849;29;20047;-68
2023/07/21 10:09:59;;;;;;;0.52;0.40;;;;;;;25.66;50.06;100318.69;4882554;29;20054;-68
2023/07/21 10:12:40;;;;;;;0.50;0.22;;;;;;;25.54;51.14;100316.13;4879362;29;20502;-68
2023/07/21 10:15:19;;;;;;;0.95;0.40;;;;;;;24.96;52.04;100306.13;4879048;29;20113;-68
2023/07/21 10:18:06;;;;;;;0.20;0.20;;;;;;;24.79;51.46;100309.66;4879322;29;20040;-68
2023/07/21 10:20:44;;;;;;;1.00;0.50;;;;;;;24.54;53.54;100296.16;4887635;29;20123;-68
2023/07/21 10:23:11;;;;;;;1.20;0.30;;;;;;;24.56;55.32;100311.00;4876972;29;20064;-67
2023/07/21 10:25:47;;;;;;;0.55;0.47;;;;;;;24.50;54.70;100303.81;4890430;29;20497;-67
2023/07/21 10:28:13;;;;;;;1.65;0.30;;;;;;;24.61;54.26;100293.84;4890905;29;20071;-68
2023/07/21 10:30:39;;;;;;;0.22;0.20;;;;;;;24.62;52.47;100297.38;4885127;29;20041;-67
2023/07/21 10:33:13;;;;;;;2.47;0.50;;;;;;;25.09;52.96;100291.41;4874633;29;20510;-67
2023/07/21 10:35:39;;;;;;;0.50;0.32;;;;;;;25.43;52.45;100305.59;4939375;28;20097;-68
2023/07/21 10:38:10;;;;;;;0.43;0.30;;;;;;;25.56;51.39;100292.34;4963406;28;20027;-66
2023/07/21 10:40:36;;;;;;;;;;;;;;;25.21;51.72;100287.69;4945791;28;20047;-65
2023/07/21 10:43:01;;;;;;;0.63;0.30;;;;;;;25.15;54.18;100292.28;4933013;28;19925;-67
2023/07/21 10:45:51;;;;;;;0.20;0.20;;;;;;;25.16;52.77;100294.59;4952786;29;20066;-66
2023/07/21 10:48:17;;;;;;;0.68;0.38;;;;;;;24.92;52.12;100280.69;4853921;29;20064;-71
2023/07/21 10:51:00;;;;;;;0.70;0.32;;;;;;;24.65;53.51;100280.69;4835818;29;20054;-68
2023/07/21 10:53:26;;;;;;;0.52;0.32;;;;;;;24.58;53.66;100278.25;4854975;29;20049;-67
2023/07/21 10:55:53;;;;;;;0.40;0.40;;;;;;;24.75;51.86;100289.75;4854437;29;20514;-67
2023/07/21 10:58:19;;;;;;;0.73;0.65;;;;;;;24.73;51.87;100286.69;4833313;29;20564;-66
2023/07/21 11:00:49;;;;;;;0.30;0.30;;;;;;;25.10;50.66;100284.66;4855390;29;20089;-66
2023/07/21 11:03:16;;;;;;;0.90;0.30;;;;;;;25.42;50.56;100281.19;4855220;29;20037;-68
2023/07/21 11:05:42;;;;;;;2.83;0.40;;;;;;;25.55;49.63;100290.06;4852705;29;20049;-67
2023/07/21 11:08:12;;;;;;;1.13;0.20;;;;;;;25.40;49.44;100283.66;4843964;29;20078;-67
2023/07/21 11:10:38;;;;;;;0.30;0.30;;;;;;;25.57;50.38;100287.59;4855971;29;20410;-66
2023/07/21 11:13:03;;;;;;;0.52;0.40;;;;;;;26.02;50.78;100283.81;4854507;29;20053;-67
2023/07/21 11:15:29;;;;;;;0.22;0.20;;;;;;;26.28;50.25;100293.22;4850973;29;20132;-66
2023/07/21 11:18:02;;;;;;;0.50;0.32;;;;;;;26.90;48.21;100293.97;4855800;29;20084;-66
2023/07/21 11:20:28;;;;;;;0.32;0.25;;;;;;;26.83;47.65;100290.81;4855905;29;20515;-70
2023/07/21 11:22:53;;;;;;;0.60;0.30;;;;;;;26.69;48.09;100287.50;4854678;29;20097;-68
2023/07/21 11:25:19;;;;;;;0.68;0.40;;;;;;;26.57;46.66;100280.25;4902324;28;20423;-66
2023/07/21 11:27:45;;;;;;;0.25;0.25;;;;;;;26.60;46.22;100284.81;4951873;29;20400;-67
2023/07/21 11:30:16;;;;;;;0.45;0.32;;;;;;;26.42;46.65;100289.75;4949203;28;20033;-66
2023/07/21 11:32:41;;;;;;;;;;;;;;;25.99;47.96;100282.78;4957169;28;20043;-66
2023/07/21 11:35:07;;;;;;;0.50;0.38;;;;;;;25.76;47.60;100284.28;4945856;29;19937;-66